sensor_id;sensor_type;location;lat;lon;timestamp;P1;durP1;ratioP1;P2;durP2;ratioP2
18405;SDS011;9329;48.720;9.588;2022-09-09T00:01:50;4.70;;;3.20;;
18405;SDS011;9329;48.720;9.588;2022-09-09T00:04:25;5.70;;;3.13;;
18405;SDS011;9329;48.720;9.588;2022-09-09T00:06:59;8.57;;;2.85;;
18405;SDS011;9329;48.720;9.588;2022-09-09T00:09:33;8.90;;;2.90;;
18405;SDS011;9329;48.720;9.588;2022-09-09T00:12:08;5.55;;;2.65;;
18405;SDS011;9329;48.720;9.588;2022-09-09T00:14:41;9.67;;;3.00;;
18405;SDS011;9329;48.720;9.588;2022-09-09T00:17:18;7.57;;;2.93;;
18405;SDS011;9329;48.720;9.588;2022-09-09T00:19:59;6.90;;;2.90;;
18405;SDS011;9329;48.720;9.588;2022-09-09T00:22:37;8.63;;;2.83;;
18405;SDS011;9329;48.720;9.588;2022-09-09T00:25:12;5.17;;;2.70;;
18405;SDS011;9329;48.720;9.588;2022-09-09T00:27:47;7.97;;;2.70;;
18405;SDS011;9329;48.720;9.588;2022-09-09T00:30:16;5.73;;;2.77;;
18405;SDS011;9329;48.720;9.588;2022-09-09T00:32:48;7.55;;;2.80;;
18405;SDS011;9329;48.720;9.588;2022-09-09T00:35:18;5.57;;;2.58;;
18405;SDS011;9329;48.720;9.588;2022-09-09T00:37:51;6.68;;;2.80;;
18405;SDS011;9329;48.720;9.588;2022-09-09T00:40:26;9.27;;;2.80;;
18405;SDS011;9329;48.720;9.588;2022-09-09T00:43:03;6.07;;;2.42;;
18405;SDS011;9329;48.720;9.588;2022-09-09T00:48:59;5.55;;;2.30;;
18405;SDS011;9329;48.720;9.588;2022-09-09T00:51:34;6.77;;;2.30;;
18405;SDS011;9329;48.720;9.588;2022-09-09T00:54:21;5.82;;;2.28;;
18405;SDS011;9329;48.720;9.588;2022-09-09T00:57:00;4.73;;;2.30;;
18405;SDS011;9329;48.720;9.588;2022-09-09T00:59:40;6.85;;;2.03;;
18405;SDS011;9329;48.720;9.588;2022-09-09T01:02:13;6.65;;;2.30;;
18405;SDS011;9329;48.720;9.588;2022-09-09T01:04:51;6.30;;;2.00;;
18405;SDS011;9329;48.720;9.588;2022-09-09T01:07:19;5.85;;;2.20;;
18405;SDS011;9329;48.720;9.588;2022-09-09T01:09:54;5.97;;;2.10;;
18405;SDS011;9329;48.720;9.588;2022-09-09T01:12:25;4.78;;;2.13;;
18405;SDS011;9329;48.720;9.588;2022-09-09T01:15:03;4.80;;;2.35;;
18405;SDS011;9329;48.720;9.588;2022-09-09T01:17:46;7.57;;;2.38;;
18405;SDS011;9329;48.720;9.588;2022-09-09T01:20:19;5.57;;;2.00;;
18405;SDS011;9329;48.720;9.588;2022-09-09T01:22:58;5.88;;;2.20;;
18405;SDS011;9329;48.720;9.588;2022-09-09T01:25:59;6.15;;;2.50;;
18405;SDS011;9329;48.720;9.588;2022-09-09T01:28:40;6.10;;;2.47;;
18405;SDS011;9329;48.720;9.588;2022-09-09T01:31:14;5.00;;;2.60;;
18405;SDS011;9329;48.720;9.588;2022-09-09T01:33:45;7.03;;;2.70;;
18405;SDS011;9329;48.720;9.588;2022-09-09T01:36:14;6.00;;;2.42;;
18405;SDS011;9329;48.720;9.588;2022-09-09T01:38:51;7.03;;;2.75;;
18405;SDS011;9329;48.720;9.588;2022-09-09T01:41:21;9.43;;;2.70;;
18405;SDS011;9329;48.720;9.588;2022-09-09T01:44:08;7.45;;;2.40;;
18405;SDS011;9329;48.720;9.588;2022-09-09T01:46:38;6.32;;;2.70;;
18405;SDS011;9329;48.720;9.588;2022-09-09T01:49:12;6.22;;;2.42;;
18405;SDS011;9329;48.720;9.588;2022-09-09T01:51:39;6.15;;;2.47;;
18405;SDS011;9329;48.720;9.588;2022-09-09T01:54:12;4.50;;;2.35;;
18405;SDS011;9329;48.720;9.588;2022-09-09T01:56:46;5.70;;;2.60;;
18405;SDS011;9329;48.720;9.588;2022-09-09T01:59:28;6.60;;;2.72;;
18405;SDS011;9329;48.720;9.588;2022-09-09T02:02:07;7.53;;;2.80;;
18405;SDS011;9329;48.720;9.588;2022-09-09T02:04:41;7.25;;;3.00;;
18405;SDS011;9329;48.720;9.588;2022-09-09T02:07:23;8.15;;;3.20;;
18405;SDS011;9329;48.720;9.588;2022-09-09T02:10:02;5.78;;;3.10;;
18405;SDS011;9329;48.720;9.588;2022-09-09T02:12:38;6.80;;;3.28;;
18405;SDS011;9329;48.720;9.588;2022-09-09T02:15:11;6.50;;;3.15;;
18405;SDS011;9329;48.720;9.588;2022-09-09T02:17:47;7.10;;;2.80;;
18405;SDS011;9329;48.720;9.588;2022-09-09T02:20:18;7.90;;;3.47;;
18405;SDS011;9329;48.720;9.588;2022-09-09T02:22:53;7.68;;;3.03;;
18405;SDS011;9329;48.720;9.588;2022-09-09T02:25:24;6.57;;;2.90;;
18405;SDS011;9329;48.720;9.588;2022-09-09T02:28:00;6.20;;;2.80;;
18405;SDS011;9329;48.720;9.588;2022-09-09T02:30:29;5.50;;;2.70;;
18405;SDS011;9329;48.720;9.588;2022-09-09T02:33:00;7.20;;;2.50;;
18405;SDS011;9329;48.720;9.588;2022-09-09T02:35:44;4.78;;;2.00;;
18405;SDS011;9329;48.720;9.588;2022-09-09T02:38:14;8.15;;;2.00;;
18405;SDS011;9329;48.720;9.588;2022-09-09T02:40:52;7.05;;;2.13;;
18405;SDS011;9329;48.720;9.588;2022-09-09T02:43:21;6.32;;;2.08;;
18405;SDS011;9329;48.720;9.588;2022-09-09T02:45:50;4.50;;;2.03;;
18405;SDS011;9329;48.720;9.588;2022-09-09T02:48:25;5.45;;;2.10;;
18405;SDS011;9329;48.720;9.588;2022-09-09T02:50:59;6.53;;;2.10;;
18405;SDS011;9329;48.720;9.588;2022-09-09T02:53:38;6.18;;;2.25;;
18405;SDS011;9329;48.720;9.588;2022-09-09T02:56:11;5.38;;;2.30;;
18405;SDS011;9329;48.720;9.588;2022-09-09T02:58:45;6.85;;;2.10;;
18405;SDS011;9329;48.720;9.588;2022-09-09T03:01:12;5.07;;;2.17;;
18405;SDS011;9329;48.720;9.588;2022-09-09T03:03:40;6.60;;;1.98;;
18405;SDS011;9329;48.720;9.588;2022-09-09T03:06:11;7.82;;;1.85;;
18405;SDS011;9329;48.720;9.588;2022-09-09T03:08:39;4.50;;;2.30;;
18405;SDS011;9329;48.720;9.588;2022-09-09T03:11:07;5.50;;;2.00;;
18405;SDS011;9329;48.720;9.588;2022-09-09T03:13:36;7.85;;;2.25;;
18405;SDS011;9329;48.720;9.588;2022-09-09T03:16:06;6.90;;;2.40;;
18405;SDS011;9329;48.720;9.588;2022-09-09T03:18:40;6.83;;;2.20;;
18405;SDS011;9329;48.720;9.588;2022-09-09T03:21:07;6.78;;;2.45;;
18405;SDS011;9329;48.720;9.588;2022-09-09T03:23:38;4.07;;;2.10;;
18405;SDS011;9329;48.720;9.588;2022-09-09T03:26:05;6.27;;;2.50;;
18405;SDS011;9329;48.720;9.588;2022-09-09T03:28:39;5.15;;;2.25;;
18405;SDS011;9329;48.720;9.588;2022-09-09T03:31:07;5.90;;;2.28;;
18405;SDS011;9329;48.720;9.588;2022-09-09T03:33:38;5.18;;;2.05;;
18405;SDS011;9329;48.720;9.588;2022-09-09T03:36:06;4.13;;;2.10;;
18405;SDS011;9329;48.720;9.588;2022-09-09T03:38:34;6.70;;;2.03;;
18405;SDS011;9329;48.720;9.588;2022-09-09T03:41:01;7.25;;;2.35;;
18405;SDS011;9329;48.720;9.588;2022-09-09T03:43:29;6.78;;;2.40;;
18405;SDS011;9329;48.720;9.588;2022-09-09T03:45:57;5.22;;;2.15;;
18405;SDS011;9329;48.720;9.588;2022-09-09T03:48:27;6.30;;;2.40;;
18405;SDS011;9329;48.720;9.588;2022-09-09T03:50:54;6.68;;;2.40;;
18405;SDS011;9329;48.720;9.588;2022-09-09T03:53:23;7.47;;;2.40;;
18405;SDS011;9329;48.720;9.588;2022-09-09T03:55:52;6.55;;;2.42;;
18405;SDS011;9329;48.720;9.588;2022-09-09T03:58:22;5.97;;;2.30;;
18405;SDS011;9329;48.720;9.588;2022-09-09T04:00:54;6.97;;;2.08;;
18405;SDS011;9329;48.720;9.588;2022-09-09T04:03:22;5.70;;;2.30;;
18405;SDS011;9329;48.720;9.588;2022-09-09T04:06:00;8.93;;;2.50;;
18405;SDS011;9329;48.720;9.588;2022-09-09T04:08:30;5.87;;;2.40;;
18405;SDS011;9329;48.720;9.588;2022-09-09T04:11:01;6.00;;;2.33;;
18405;SDS011;9329;48.720;9.588;2022-09-09T04:13:32;5.70;;;2.43;;
18405;SDS011;9329;48.720;9.588;2022-09-09T04:16:01;5.53;;;2.40;;
18405;SDS011;9329;48.720;9.588;2022-09-09T04:18:32;9.45;;;2.40;;
18405;SDS011;9329;48.720;9.588;2022-09-09T04:21:01;5.20;;;2.40;;
18405;SDS011;9329;48.720;9.588;2022-09-09T04:23:32;8.73;;;2.80;;
18405;SDS011;9329;48.720;9.588;2022-09-09T04:26:01;4.68;;;2.33;;
18405;SDS011;9329;48.720;9.588;2022-09-09T04:28:32;6.03;;;2.50;;
18405;SDS011;9329;48.720;9.588;2022-09-09T04:31:03;4.60;;;2.30;;
18405;SDS011;9329;48.720;9.588;2022-09-09T04:33:35;10.05;;;3.08;;
18405;SDS011;9329;48.720;9.588;2022-09-09T04:36:05;6.03;;;2.70;;
18405;SDS011;9329;48.720;9.588;2022-09-09T04:38:32;6.60;;;2.88;;
18405;SDS011;9329;48.720;9.588;2022-09-09T04:41:03;5.07;;;2.72;;
18405;SDS011;9329;48.720;9.588;2022-09-09T04:43:37;5.85;;;2.90;;
18405;SDS011;9329;48.720;9.588;2022-09-09T04:46:08;6.10;;;2.75;;
18405;SDS011;9329;48.720;9.588;2022-09-09T04:48:39;6.63;;;2.85;;
18405;SDS011;9329;48.720;9.588;2022-09-09T04:51:11;8.38;;;2.88;;
18405;SDS011;9329;48.720;9.588;2022-09-09T04:53:39;4.28;;;2.22;;
18405;SDS011;9329;48.720;9.588;2022-09-09T04:56:08;8.23;;;2.70;;
18405;SDS011;9329;48.720;9.588;2022-09-09T04:58:43;6.20;;;3.05;;
18405;SDS011;9329;48.720;9.588;2022-09-09T05:01:13;5.00;;;2.70;;
18405;SDS011;9329;48.720;9.588;2022-09-09T05:03:43;7.20;;;3.00;;
18405;SDS011;9329;48.720;9.588;2022-09-09T05:06:15;6.43;;;3.00;;
18405;SDS011;9329;48.720;9.588;2022-09-09T05:08:46;8.13;;;3.40;;
18405;SDS011;9329;48.720;9.588;2022-09-09T05:11:18;8.63;;;3.10;;
18405;SDS011;9329;48.720;9.588;2022-09-09T05:13:49;8.18;;;3.60;;
18405;SDS011;9329;48.720;9.588;2022-09-09T05:16:18;7.57;;;3.70;;
18405;SDS011;9329;48.720;9.588;2022-09-09T05:18:46;7.60;;;3.20;;
18405;SDS011;9329;48.720;9.588;2022-09-09T05:21:18;8.82;;;3.65;;
18405;SDS011;9329;48.720;9.588;2022-09-09T05:23:48;8.25;;;4.15;;
18405;SDS011;9329;48.720;9.588;2022-09-09T05:26:18;7.07;;;3.90;;
18405;SDS011;9329;48.720;9.588;2022-09-09T05:28:48;6.60;;;4.03;;
18405;SDS011;9329;48.720;9.588;2022-09-09T05:31:16;8.23;;;4.00;;
18405;SDS011;9329;48.720;9.588;2022-09-09T05:33:47;6.13;;;2.97;;
18405;SDS011;9329;48.720;9.588;2022-09-09T05:36:16;8.68;;;3.00;;
18405;SDS011;9329;48.720;9.588;2022-09-09T05:38:48;9.05;;;3.10;;
18405;SDS011;9329;48.720;9.588;2022-09-09T05:41:16;7.00;;;3.00;;
18405;SDS011;9329;48.720;9.588;2022-09-09T05:43:46;4.68;;;2.80;;
18405;SDS011;9329;48.720;9.588;2022-09-09T05:46:14;7.32;;;2.95;;
18405;SDS011;9329;48.720;9.588;2022-09-09T05:48:45;6.43;;;2.93;;
18405;SDS011;9329;48.720;9.588;2022-09-09T05:51:16;10.05;;;3.47;;
18405;SDS011;9329;48.720;9.588;2022-09-09T05:53:47;10.15;;;3.67;;
18405;SDS011;9329;48.720;9.588;2022-09-09T05:56:16;9.25;;;3.92;;
18405;SDS011;9329;48.720;9.588;2022-09-09T05:58:45;8.88;;;4.00;;
18405;SDS011;9329;48.720;9.588;2022-09-09T06:01:16;8.82;;;4.05;;
18405;SDS011;9329;48.720;9.588;2022-09-09T06:03:44;8.00;;;3.60;;
18405;SDS011;9329;48.720;9.588;2022-09-09T06:06:14;9.07;;;3.45;;
18405;SDS011;9329;48.720;9.588;2022-09-09T06:08:44;8.95;;;3.22;;
18405;SDS011;9329;48.720;9.588;2022-09-09T06:11:14;9.52;;;3.38;;
18405;SDS011;9329;48.720;9.588;2022-09-09T06:13:43;8.37;;;3.20;;
18405;SDS011;9329;48.720;9.588;2022-09-09T06:16:12;7.28;;;2.70;;
18405;SDS011;9329;48.720;9.588;2022-09-09T06:18:42;5.22;;;3.00;;
18405;SDS011;9329;48.720;9.588;2022-09-09T06:21:14;7.15;;;2.75;;
18405;SDS011;9329;48.720;9.588;2022-09-09T06:23:47;7.85;;;2.78;;
18405;SDS011;9329;48.720;9.588;2022-09-09T06:26:19;7.63;;;2.83;;
18405;SDS011;9329;48.720;9.588;2022-09-09T06:28:49;23.63;;;5.28;;
18405;SDS011;9329;48.720;9.588;2022-09-09T06:31:19;30.83;;;5.05;;
18405;SDS011;9329;48.720;9.588;2022-09-09T06:33:48;19.75;;;4.35;;
18405;SDS011;9329;48.720;9.588;2022-09-09T06:36:17;19.40;;;4.60;;
18405;SDS011;9329;48.720;9.588;2022-09-09T06:38:47;23.42;;;4.65;;
18405;SDS011;9329;48.720;9.588;2022-09-09T06:41:15;13.80;;;3.60;;
18405;SDS011;9329;48.720;9.588;2022-09-09T06:43:44;13.05;;;3.38;;
18405;SDS011;9329;48.720;9.588;2022-09-09T06:46:12;9.53;;;3.10;;
18405;SDS011;9329;48.720;9.588;2022-09-09T06:48:41;7.05;;;3.72;;
18405;SDS011;9329;48.720;9.588;2022-09-09T06:51:12;12.63;;;4.55;;
18405;SDS011;9329;48.720;9.588;2022-09-09T06:53:41;10.50;;;4.75;;
18405;SDS011;9329;48.720;9.588;2022-09-09T06:56:19;10.80;;;4.87;;
18405;SDS011;9329;48.720;9.588;2022-09-09T06:58:50;9.00;;;4.20;;
18405;SDS011;9329;48.720;9.588;2022-09-09T07:01:24;8.68;;;4.15;;
18405;SDS011;9329;48.720;9.588;2022-09-09T07:03:54;9.90;;;4.65;;
18405;SDS011;9329;48.720;9.588;2022-09-09T07:06:25;8.27;;;3.65;;
18405;SDS011;9329;48.720;9.588;2022-09-09T07:08:56;6.90;;;3.50;;
18405;SDS011;9329;48.720;9.588;2022-09-09T07:11:28;10.45;;;3.30;;
18405;SDS011;9329;48.720;9.588;2022-09-09T07:13:57;7.40;;;3.30;;
18405;SDS011;9329;48.720;9.588;2022-09-09T07:16:25;5.78;;;3.08;;
18405;SDS011;9329;48.720;9.588;2022-09-09T07:18:56;5.95;;;3.00;;
18405;SDS011;9329;48.720;9.588;2022-09-09T07:21:24;9.43;;;3.20;;
18405;SDS011;9329;48.720;9.588;2022-09-09T07:23:53;8.27;;;3.28;;
18405;SDS011;9329;48.720;9.588;2022-09-09T07:26:22;9.13;;;3.30;;
18405;SDS011;9329;48.720;9.588;2022-09-09T07:28:53;7.05;;;3.30;;
18405;SDS011;9329;48.720;9.588;2022-09-09T07:31:23;7.90;;;3.08;;
18405;SDS011;9329;48.720;9.588;2022-09-09T07:33:52;9.27;;;3.42;;
18405;SDS011;9329;48.720;9.588;2022-09-09T07:36:20;6.68;;;3.50;;
18405;SDS011;9329;48.720;9.588;2022-09-09T07:38:49;9.03;;;3.70;;
18405;SDS011;9329;48.720;9.588;2022-09-09T07:41:18;11.00;;;3.20;;
18405;SDS011;9329;48.720;9.588;2022-09-09T07:43:48;9.00;;;3.20;;
18405;SDS011;9329;48.720;9.588;2022-09-09T07:46:18;7.65;;;3.28;;
18405;SDS011;9329;48.720;9.588;2022-09-09T07:48:47;7.00;;;3.03;;
18405;SDS011;9329;48.720;9.588;2022-09-09T07:51:18;6.70;;;3.03;;
18405;SDS011;9329;48.720;9.588;2022-09-09T07:53:51;8.45;;;3.03;;
18405;SDS011;9329;48.720;9.588;2022-09-09T07:56:20;7.50;;;2.63;;
18405;SDS011;9329;48.720;9.588;2022-09-09T07:58:48;4.85;;;2.40;;
18405;SDS011;9329;48.720;9.588;2022-09-09T08:01:19;7.72;;;2.70;;
18405;SDS011;9329;48.720;9.588;2022-09-09T08:03:51;6.93;;;2.70;;
18405;SDS011;9329;48.720;9.588;2022-09-09T08:06:20;5.70;;;2.60;;
18405;SDS011;9329;48.720;9.588;2022-09-09T08:08:49;8.73;;;2.60;;
18405;SDS011;9329;48.720;9.588;2022-09-09T08:11:19;4.85;;;2.38;;
18405;SDS011;9329;48.720;9.588;2022-09-09T08:13:49;9.18;;;2.88;;
18405;SDS011;9329;48.720;9.588;2022-09-09T08:16:18;7.43;;;1.73;;
18405;SDS011;9329;48.720;9.588;2022-09-09T08:18:53;6.07;;;2.70;;
18405;SDS011;9329;48.720;9.588;2022-09-09T08:21:21;6.15;;;2.40;;
18405;SDS011;9329;48.720;9.588;2022-09-09T08:24:00;4.32;;;2.10;;
18405;SDS011;9329;48.720;9.588;2022-09-09T08:26:30;4.57;;;1.80;;
18405;SDS011;9329;48.720;9.588;2022-09-09T08:29:01;5.82;;;2.75;;
18405;SDS011;9329;48.720;9.588;2022-09-09T08:31:33;5.63;;;1.80;;
18405;SDS011;9329;48.720;9.588;2022-09-09T08:34:05;6.55;;;1.70;;
18405;SDS011;9329;48.720;9.588;2022-09-09T08:36:37;3.88;;;1.60;;
18405;SDS011;9329;48.720;9.588;2022-09-09T08:39:07;3.75;;;1.52;;
18405;SDS011;9329;48.720;9.588;2022-09-09T08:41:41;6.10;;;1.55;;
18405;SDS011;9329;48.720;9.588;2022-09-09T08:44:41;4.65;;;1.65;;
18405;SDS011;9329;48.720;9.588;2022-09-09T08:47:26;6.13;;;1.50;;
18405;SDS011;9329;48.720;9.588;2022-09-09T08:50:16;6.57;;;1.73;;
18405;SDS011;9329;48.720;9.588;2022-09-09T08:52:53;6.97;;;1.60;;
18405;SDS011;9329;48.720;9.588;2022-09-09T08:55:29;6.63;;;1.60;;
18405;SDS011;9329;48.720;9.588;2022-09-09T08:58:08;5.63;;;1.50;;
18405;SDS011;9329;48.720;9.588;2022-09-09T09:00:41;5.75;;;1.70;;
18405;SDS011;9329;48.720;9.588;2022-09-09T09:03:24;5.18;;;1.75;;
18405;SDS011;9329;48.720;9.588;2022-09-09T09:11:06;6.20;;;1.13;;
18405;SDS011;9329;48.720;9.588;2022-09-09T09:13:38;3.58;;;1.23;;
18405;SDS011;9329;48.720;9.588;2022-09-09T09:16:14;5.38;;;1.20;;
18405;SDS011;9329;48.720;9.588;2022-09-09T09:18:50;5.38;;;2.10;;
18405;SDS011;9329;48.720;9.588;2022-09-09T09:21:20;7.10;;;1.58;;
18405;SDS011;9329;48.720;9.588;2022-09-09T09:23:54;3.47;;;1.20;;
18405;SDS011;9329;48.720;9.588;2022-09-09T09:26:27;3.42;;;1.20;;
18405;SDS011;9329;48.720;9.588;2022-09-09T09:28:57;4.47;;;1.33;;
18405;SDS011;9329;48.720;9.588;2022-09-09T09:31:28;5.28;;;1.77;;
18405;SDS011;9329;48.720;9.588;2022-09-09T09:33:56;3.92;;;1.60;;
18405;SDS011;9329;48.720;9.588;2022-09-09T09:36:33;4.68;;;1.40;;
18405;SDS011;9329;48.720;9.588;2022-09-09T09:39:03;3.47;;;1.10;;
18405;SDS011;9329;48.720;9.588;2022-09-09T10:50:42;3.72;;;0.70;;
18405;SDS011;9329;48.720;9.588;2022-09-09T10:53:26;3.95;;;1.23;;
